LICCLICR

Guest
Details From LICC - Catania Fontanarossa
To LICR - Reggio Calabria
Flight Number -
Tags Routegen Generated
Created
Modified
Stats Distance 49 nm / 91 km
Max Altitude 100 ft / 30 m
Waypoints 5
Social Downloads 5
Likes 0
Share VATSIM

Download

Looking for another format? Having issues loading an existing format? Contact us
Advertisement - Login to hide

Notes

Departing runway 8 LICC. Arriving runway 15 LICR.

Route

LICC +37.48_+015.17 +37.74_+015.44 +38.00_+015.70 LICR

ID Type Via Altitude Latitude Longitude Leg Dist Tot Dist Heading (true) Name
O LICC APT - 0 ft / 0 m 37.46793˚ 15.08011˚ - 0 nm - -
+37.48_+015.17 LATLON - 100 ft / 30 m 37.47552˚ 15.17079˚ 4 nm 4 nm 84° / 84° -
+37.74_+015.44 LATLON - 100 ft / 30 m 37.73821˚ 15.43505˚ 20 nm 24 nm 38° / 39° -
+38.00_+015.70 LATLON - 100 ft / 30 m 38.00090˚ 15.69931˚ 20 nm 44 nm 38° / 39° -
O LICR APT - 0 ft / 0 m 38.06475˚ 15.65606˚ 4 nm 49 nm 332° / 332° -

Altitude Profile

Advertisement - Login to hide

LICC

Details ICAO LICC (CTA)
Name Catania Fontanarossa
Region Italy
Timezone Europe/Rome (UTC+1.0)
Stats Elevation 39 ft / 12 m (AMSL)
Location 37.466779° 15.066401°
Runways 1
Magnetic Variation 3.216° E

METAR

LICC 170020Z 28012KT CAVOK 10/06 Q1011

Decode

TAF

TAF LICC 162300Z 1700/1724 28010KT 9999 SCT030

Decode

Departure Runways

ID Width Length Bearing (true) Bearing (mag) Surface Threshold Offset Overrun Length
08 148 ft / 45 m 7,985 ft / 2,434 m 83.94° 80.72° Asphalt 312 ft / 95 m 0 ft / 0 m
26 148 ft / 45 m 7,985 ft / 2,434 m 263.95° 260.73° Asphalt 279 ft / 85 m 0 ft / 0 m

LICR

Details ICAO LICR (REG)
Name Reggio Calabria
Region Italy
Timezone Europe/Rome (UTC+1.0)
Stats Elevation 96 ft / 29 m (AMSL)
Location 38.072573° 15.649317°
Runways 2
Magnetic Variation 3.346° E

METAR

LICR 162250Z 01009KT 350V050 9999 SCT040 12/07 Q1011

Decode

TAF

TAF LICR 161700Z 1618/1718 36014KT 9999 SCT030 TEMPO 1618/1624 SHRA TEMPO 1712/1718 SHRA

Decode

Destination Runways

ID Width Length Bearing (true) Bearing (mag) Surface Threshold Offset Overrun Length
11 148 ft / 45 m 6,123 ft / 1,866 m 111.76° 108.41° Asphalt 203 ft / 62 m 0 ft / 0 m
15 148 ft / 45 m 6,640 ft / 2,024 m 151.90° 148.55° Asphalt 784 ft / 239 m 0 ft / 0 m
29 148 ft / 45 m 6,123 ft / 1,866 m 291.77° 288.42° Asphalt 157 ft / 48 m 0 ft / 0 m
33 148 ft / 45 m 6,640 ft / 2,024 m 331.90° 328.55° Asphalt 659 ft / 201 m 0 ft / 0 m

Approach Navaids

Runway Type Ident Frequency Range Bearing (true) Bearing (mag) Slope Elevation
33 Localiser REG 109.30 MHz 18 nm / 33 km 19.16° 15.82° - 95 ft / 29 m (AMSL)

Popular Alternatives